Terminal Aerodrome Forecast
Issued by NWS

Home | Current Version | Previous Version | Graphics & Text | Print | Product List | Glossary On
Versions: 1 2 3 4 5 6 7 8 9 10 11 12 13 14 15
000
FTUS43 KMPX 300520
TAFAXN
TAF
KAXN 300520Z 3006/0106 34009KT P6SM SCT120
     FM301200 04005KT P6SM SKC
     FM301700 05007KT P6SM SCT060 BKN250=

USA.gov is the U.S. government's official web portal to all federal, state and local government web resources and services.